Time;durP1;ratioP1;P1;durP2;ratioP2;P2;SDS_P1;SDS_P2;PMS_P1;PMS_P2;Temp;Humidity;BMP_temperature;BMP_pressure;BME280_temperature;BME280_humidity;BME280_pressure;Samples;Min_cycle;Max_cycle;Signal;HPM_P1;HPM_P2
2023/03/09 00:00:11;;;;;;;11.1;6.9;;;;;;;8.5;82.5;96590;;;;
2023/03/09 00:11:09;;;;;;;11.1;6.9;;;;;;;8.5;83.1;96580;;;;
2023/03/09 00:22:09;;;;;;;10.6;7;;;;;;;8.4;83.9;96580;;;;
2023/03/09 00:32:09;;;;;;;10.6;7;;;;;;;8.5;83.5;96570;;;;
2023/03/09 00:42:09;;;;;;;10.6;7;;;;;;;8.4;83.7;96560;;;;
2023/03/09 00:52:09;;;;;;;10.1;7.1;;;;;;;8.5;83.3;96560;;;;
2023/03/09 01:02:09;;;;;;;10.1;7.1;;;;;;;8.5;83.5;96560;;;;
2023/03/09 01:12:09;;;;;;;10.1;7.1;;;;;;;8.5;83.6;96540;;;;
2023/03/09 01:23:09;;;;;;;9.7;6.6;;;;;;;8.6;83.4;96520;;;;
2023/03/09 01:33:09;;;;;;;9.7;6.6;;;;;;;8.6;83.3;96520;;;;
2023/03/09 01:44:09;;;;;;;10.3;6;;;;;;;8.6;83.4;96510;;;;
2023/03/09 01:54:09;;;;;;;10.3;6;;;;;;;8.6;83.1;96510;;;;
2023/03/09 02:05:09;;;;;;;10.3;6;;;;;;;8.6;83;96500;;;;
2023/03/09 02:16:09;;;;;;;8.6;5.2;;;;;;;8.7;82.9;96490;;;;
2023/03/09 02:26:09;;;;;;;8.6;5.2;;;;;;;8.7;82.4;96480;;;;
2023/03/09 02:37:09;;;;;;;8.6;5.2;;;;;;;8.8;82.4;96480;;;;
2023/03/09 02:47:09;;;;;;;5.1;3.4;;;;;;;8.9;82.5;96480;;;;
2023/03/09 02:58:09;;;;;;;5.1;3.4;;;;;;;8.9;82.8;96480;;;;
2023/03/09 03:08:09;;;;;;;5.1;3.4;;;;;;;8.9;83.7;96490;;;;
2023/03/09 03:18:09;;;;;;;;;;;;;;;8.9;83.9;96490;;;;
2023/03/09 03:29:10;;;;;;;3.4;1.9;;;;;;;8.9;84.4;96490;;;;
2023/03/09 03:40:09;;;;;;;3.4;1.9;;;;;;;8.8;84.8;96490;;;;
2023/03/09 03:51:09;;;;;;;3.4;1.9;;;;;;;8.8;85.2;96480;;;;
2023/03/09 04:01:09;;;;;;;4.2;2.3;;;;;;;8.8;85.2;96470;;;;
2023/03/09 04:12:09;;;;;;;4.2;2.3;;;;;;;8.7;84.9;96460;;;;
2023/03/09 04:22:09;;;;;;;4.2;2.3;;;;;;;8.7;84.5;96450;;;;
2023/03/09 04:33:09;;;;;;;3.3;1.7;;;;;;;8.6;84.2;96440;;;;
2023/03/09 04:44:09;;;;;;;3.3;1.7;;;;;;;8.6;84.1;96430;;;;
2023/03/09 04:55:09;;;;;;;4.6;2.3;;;;;;;8.8;83.4;96420;;;;
2023/03/09 05:05:09;;;;;;;4.6;2.3;;;;;;;8.9;82.8;96410;;;;
2023/03/09 05:15:09;;;;;;;4.6;2.3;;;;;;;8.9;82.4;96400;;;;
2023/03/09 05:26:10;;;;;;;4.1;2.2;;;;;;;9;82.1;96400;;;;
2023/03/09 05:36:09;;;;;;;4.1;2.2;;;;;;;9;81.8;96400;;;;
2023/03/09 05:47:09;;;;;;;4.1;2.2;;;;;;;9.2;81.3;96400;;;;
2023/03/09 05:57:09;;;;;;;3.6;2.2;;;;;;;9.3;80.2;96390;;;;
2023/03/09 06:08:10;;;;;;;3.6;2.2;;;;;;;9.5;79.6;96390;;;;
2023/03/09 06:19:09;;;;;;;3.6;2.2;;;;;;;9.6;79.3;96390;;;;
2023/03/09 06:30:09;;;;;;;6.1;2.7;;;;;;;9.8;78.9;96390;;;;
2023/03/09 06:41:10;;;;;;;6.1;2.7;;;;;;;10;78.2;96390;;;;
2023/03/09 06:52:09;;;;;;;6.1;2.7;;;;;;;10.1;77.4;96400;;;;
2023/03/09 07:03:11;;;;;;;3.8;2.2;;;;;;;10.4;77.2;96390;;;;
2023/03/09 07:13:09;;;;;;;3.8;2.2;;;;;;;10.6;76.1;96390;;;;
2023/03/09 07:23:09;;;;;;;4.5;2.4;;;;;;;10.7;75.7;96390;;;;
2023/03/09 07:33:09;;;;;;;4.5;2.4;;;;;;;10.7;75.7;96380;;;;
2023/03/09 07:44:09;;;;;;;4.5;2.4;;;;;;;10.8;75.3;96370;;;;
2023/03/09 07:54:10;;;;;;;3.8;2.2;;;;;;;11.1;75;96340;;;;
2023/03/09 08:04:09;;;;;;;3.8;2.2;;;;;;;11;75.7;96350;;;;
2023/03/09 08:15:10;;;;;;;3.8;2.2;;;;;;;10.8;78.7;96360;;;;
2023/03/09 08:26:11;;;;;;;5.1;2.8;;;;;;;10.5;81.3;96390;;;;
2023/03/09 08:36:09;;;;;;;5.1;2.8;;;;;;;10.6;81.7;96390;;;;
2023/03/09 08:46:09;;;;;;;5.1;2.8;;;;;;;10.6;81.8;96390;;;;
2023/03/09 08:57:09;;;;;;;4.2;2.4;;;;;;;10.6;82.1;96400;;;;
2023/03/09 09:07:09;;;;;;;4.2;2.4;;;;;;;10.7;82;96390;;;;
2023/03/09 09:17:11;;;;;;;4.2;2.4;;;;;;;10.9;82.4;96390;;;;
2023/03/09 09:28:09;;;;;;;4.3;2.1;;;;;;;11;82.4;96390;;;;
2023/03/09 09:38:10;;;;;;;4.3;2.1;;;;;;;10.9;82.3;96390;;;;
2023/03/09 09:49:09;;;;;;;4.3;2.1;;;;;;;11.2;82.3;96400;;;;
2023/03/09 09:59:09;;;;;;;5;2.7;;;;;;;11.3;82;96410;;;;
2023/03/09 10:10:09;;;;;;;5;2.7;;;;;;;11.4;82.6;96430;;;;
2023/03/09 10:20:09;;;;;;;5;2.7;;;;;;;11.1;83.4;96440;;;;
2023/03/09 10:30:09;;;;;;;7.1;4.1;;;;;;;11;84.1;96440;;;;
2023/03/09 10:41:09;;;;;;;7.1;4.1;;;;;;;10.5;85.5;96480;;;;
2023/03/09 10:52:09;;;;;;;7.1;4.1;;;;;;;10.1;87.4;96510;;;;
2023/03/09 11:03:09;;;;;;;6.3;3.8;;;;;;;9.9;88.4;96520;;;;
2023/03/09 11:14:09;;;;;;;6.3;3.8;;;;;;;9.9;88.6;96530;;;;
2023/03/09 11:24:09;;;;;;;9.2;6.1;;;;;;;10.1;88.3;96550;;;;
2023/03/09 11:35:09;;;;;;;9.2;6.1;;;;;;;10.1;88;96570;;;;
2023/03/09 11:45:10;;;;;;;9.2;6.1;;;;;;;9.9;88.7;96590;;;;
2023/03/09 11:56:09;;;;;;;8.9;6.1;;;;;;;9.7;88;96620;;;;
2023/03/09 12:06:11;;;;;;;8.9;6.1;;;;;;;9.6;87.3;96640;;;;
2023/03/09 12:16:09;;;;;;;8.9;6.1;;;;;;;9.6;87;96680;;;;
2023/03/09 12:27:09;;;;;;;5.4;2.7;;;;;;;9.7;85.9;96700;;;;
2023/03/09 12:37:09;;;;;;;5.4;2.7;;;;;;;10;86;96710;;;;
2023/03/09 12:48:11;;;;;;;5.4;2.7;;;;;;;10;85.6;96730;;;;
2023/03/09 12:59:09;;;;;;;5.4;2.5;;;;;;;9.9;83.8;96750;;;;
2023/03/09 13:10:10;;;;;;;5.4;2.5;;;;;;;10.2;82.7;96770;;;;
2023/03/09 13:20:09;;;;;;;5.4;2.5;;;;;;;10.4;81.3;96790;;;;
2023/03/09 13:30:10;;;;;;;4.1;2.1;;;;;;;10.6;80.5;96810;;;;
2023/03/09 13:41:09;;;;;;;4.1;2.1;;;;;;;10.7;78.4;96840;;;;
2023/03/09 13:51:10;;;;;;;4.1;2.1;;;;;;;10.8;79.3;96860;;;;
2023/03/09 14:02:11;;;;;;;4.4;2.3;;;;;;;11;78.2;96880;;;;
2023/03/09 14:12:09;;;;;;;4.4;2.3;;;;;;;10.9;78.2;96900;;;;
2023/03/09 14:23:11;;;;;;;5.6;3.3;;;;;;;10.9;77.3;96910;;;;
2023/03/09 14:33:09;;;;;;;5.6;3.3;;;;;;;11;77;96920;;;;
2023/03/09 14:43:10;;;;;;;5.6;3.3;;;;;;;11.2;76.6;96920;;;;
2023/03/09 14:54:10;;;;;;;8.1;4.9;;;;;;;11.1;76.7;96920;;;;
2023/03/09 15:04:10;;;;;;;8.1;4.9;;;;;;;10.9;73.9;96940;;;;
2023/03/09 15:15:10;;;;;;;8.1;4.9;;;;;;;11.1;74.4;96960;;;;
2023/03/09 15:26:10;;;;;;;9.1;6.8;;;;;;;11;74.1;96980;;;;
2023/03/09 15:36:10;;;;;;;9.1;6.8;;;;;;;10.6;74.1;97010;;;;
2023/03/09 15:46:10;;;;;;;9.1;6.8;;;;;;;10.2;75.1;97020;;;;
2023/03/09 15:56:10;;;;;;;11.8;7.3;;;;;;;10;75.6;97030;;;;
2023/03/09 16:07:10;;;;;;;11.8;7.3;;;;;;;9.8;75.7;97040;;;;
2023/03/09 16:18:10;;;;;;;11.8;7.3;;;;;;;9.6;76.3;97070;;;;
2023/03/09 16:29:10;;;;;;;11.1;8.1;;;;;;;9.4;77;97100;;;;
2023/03/09 16:39:10;;;;;;;11.1;8.1;;;;;;;9.1;77.6;97120;;;;
2023/03/09 16:50:10;;;;;;;11.1;8.1;;;;;;;8.9;78.1;97150;;;;
2023/03/09 17:00:10;;;;;;;13.6;11.4;;;;;;;8.7;77.7;97170;;;;
2023/03/09 17:11:10;;;;;;;13.6;11.4;;;;;;;8.6;77.4;97200;;;;
2023/03/09 17:21:10;;;;;;;13.6;11.4;;;;;;;8.6;77.3;97210;;;;
2023/03/09 17:32:10;;;;;;;16.1;12.9;;;;;;;8.6;77.5;97220;;;;
2023/03/09 17:43:10;;;;;;;16.1;12.9;;;;;;;8.6;77.6;97250;;;;
2023/03/09 17:53:10;;;;;;;25.6;17.9;;;;;;;8.5;77.2;97270;;;;
2023/03/09 18:03:10;;;;;;;25.6;17.9;;;;;;;8.5;77.3;97260;;;;
2023/03/09 18:13:12;;;;;;;25.6;17.9;;;;;;;8.5;77.5;97280;;;;
2023/03/09 18:24:10;;;;;;;20.3;17.2;;;;;;;8.5;77.7;97290;;;;
2023/03/09 18:35:10;;;;;;;20.3;17.2;;;;;;;8.4;78.2;97290;;;;
2023/03/09 18:45:10;;;;;;;20.3;17.2;;;;;;;8.4;78.1;97290;;;;
2023/03/09 18:56:10;;;;;;;23.4;18.1;;;;;;;8.3;78.1;97290;;;;
2023/03/09 19:07:10;;;;;;;23.4;18.1;;;;;;;8.2;78.3;97290;;;;
2023/03/09 19:18:10;;;;;;;23.4;18.1;;;;;;;7.9;79.1;97290;;;;
2023/03/09 19:28:11;;;;;;;21.4;15.9;;;;;;;7.7;79.7;97290;;;;
2023/03/09 19:38:10;;;;;;;21.4;15.9;;;;;;;7.6;79.8;97290;;;;
2023/03/09 19:48:10;;;;;;;21.4;15.9;;;;;;;7.6;80;97280;;;;
2023/03/09 19:58:10;;;;;;;22;15.4;;;;;;;7.5;80.1;97280;;;;
2023/03/09 20:08:10;;;;;;;22;15.4;;;;;;;7.5;80.1;97270;;;;
2023/03/09 20:19:10;;;;;;;22;15.4;;;;;;;7.2;79.9;97270;;;;
2023/03/09 20:29:10;;;;;;;23.9;15.7;;;;;;;7.1;80.5;97270;;;;
2023/03/09 20:39:10;;;;;;;23.9;15.7;;;;;;;7.1;80.8;97270;;;;
2023/03/09 20:50:10;;;;;;;23.9;15.7;;;;;;;7.1;81.3;97270;;;;
2023/03/09 21:00:10;;;;;;;26.3;18.6;;;;;;;6.9;81.5;97260;;;;
2023/03/09 21:11:10;;;;;;;26.3;18.6;;;;;;;6.6;81.7;97240;;;;
2023/03/09 21:21:10;;;;;;;26.3;18.6;;;;;;;6.5;82.1;97250;;;;
2023/03/09 21:32:10;;;;;;;29.9;20.6;;;;;;;6.5;82.5;97240;;;;
2023/03/09 21:42:10;;;;;;;29.9;20.6;;;;;;;6.6;83.1;97230;;;;
2023/03/09 21:53:10;;;;;;;34.3;21.6;;;;;;;6.7;83.6;97220;;;;
2023/03/09 22:03:10;;;;;;;34.3;21.6;;;;;;;6.7;83.7;97210;;;;
2023/03/09 22:14:10;;;;;;;34.3;21.6;;;;;;;6.8;83.9;97220;;;;
2023/03/09 22:25:10;;;;;;;33.7;23.4;;;;;;;6.9;84.1;97190;;;;
2023/03/09 22:35:10;;;;;;;33.7;23.4;;;;;;;7;85.2;97180;;;;
2023/03/09 22:46:10;;;;;;;33.7;23.4;;;;;;;6.9;85.1;97190;;;;
2023/03/09 22:56:10;;;;;;;28.4;23.6;;;;;;;6.9;85;97180;;;;
2023/03/09 23:06:10;;;;;;;28.4;23.6;;;;;;;6.9;84.9;97190;;;;
2023/03/09 23:17:10;;;;;;;28.4;23.6;;;;;;;6.6;84.2;97180;;;;
2023/03/09 23:28:10;;;;;;;30.2;21.9;;;;;;;6.3;84;97180;;;;
2023/03/09 23:38:10;;;;;;;30.2;21.9;;;;;;;6.1;84.4;97180;;;;
2023/03/09 23:49:10;;;;;;;30.2;21.9;;;;;;;5.8;84.6;97190;;;;
2023/03/09 23:59:10;;;;;;;24.1;17.1;;;;;;;5.9;85.8;97190;;;;
